Time;durP1;ratioP1;P1;durP2;ratioP2;P2;SDS_P1;SDS_P2;PMS_P1;PMS_P2;Temp;Humidity;BMP_temperature;BMP_pressure;BME280_temperature;BME280_humidity;BME280_pressure;Samples;Min_cycle;Max_cycle;Signal;HPM_P1;HPM_P2
2022/03/27 00:00:34;;;;;;;22.15;7.90;;;;;;;;;;10487682;28;20094;-71
2022/03/27 00:05:34;;;;;;;21.33;7.60;;;;;;;;;;10487365;28;20021;-75
2022/03/27 00:11:23;;;;;;;18.65;7.75;;;;;;;;;;10470845;28;20410;-73
2022/03/27 00:15:55;;;;;;;14.52;8.02;;;;;;;;;;10488644;28;20032;-71
2022/03/27 00:20:55;;;;;;;12.60;7.27;;;;;;;;;;10487297;28;20017;-74
2022/03/27 00:25:56;;;;;;;15.50;7.63;;;;;;;;;;10487302;28;20114;-73
2022/03/27 00:30:56;;;;;;;20.20;7.57;;;;;;;;;;10459079;28;20032;-74
2022/03/27 00:35:56;;;;;;;15.73;7.03;;;;;;;;;;10478412;28;20522;-71
2022/03/27 00:40:57;;;;;;;20.77;8.95;;;;;;;;;;10478536;28;20490;-71
2022/03/27 00:45:57;;;;;;;24.20;9.07;;;;;;;;;;10477602;28;20031;-72
2022/03/27 00:50:57;;;;;;;18.60;8.43;;;;;;;;;;10478281;28;20020;-75
2022/03/27 00:55:58;;;;;;;15.98;7.60;;;;;;;;;;10494506;28;20517;-70
2022/03/27 01:01:01;;;;;;;25.00;9.20;;;;;;;;;;10478550;28;20546;-74
2022/03/27 01:06:01;;;;;;;14.38;6.85;;;;;;;;;;10477486;28;20764;-77
2022/03/27 01:11:08;;;;;;;21.90;7.97;;;;;;;;;;10477084;28;20017;-74
2022/03/27 01:16:30;;;;;;;23.33;8.65;;;;;;;;;;10477033;28;20023;-71
2022/03/27 01:21:31;;;;;;;28.58;9.23;;;;;;;;;;10476714;28;20070;-75
2022/03/27 01:26:32;;;;;;;18.15;9.18;;;;;;;;;;10476843;28;20615;-75
2022/03/27 01:31:32;;;;;;;22.05;9.35;;;;;;;;;;10476243;28;20044;-77
2022/03/27 01:36:34;;;;;;;19.30;7.88;;;;;;;;;;10476199;28;20391;-70
2022/03/27 01:41:35;;;;;;;20.65;8.05;;;;;;;;;;10476043;28;20194;-76
2022/03/27 01:46:37;;;;;;;19.27;8.88;;;;;;;;;;10476233;28;20145;-71
2022/03/27 01:51:38;;;;;;;20.42;8.50;;;;;;;;;;10493467;28;20027;-74
2022/03/27 01:56:39;;;;;;;20.42;8.75;;;;;;;;;;10475600;28;20021;-73
2022/03/27 02:01:39;;;;;;;23.35;8.60;;;;;;;;;;10493820;28;20025;-71
2022/03/27 02:06:39;;;;;;;18.47;8.60;;;;;;;;;;10475125;28;20016;-74
2022/03/27 02:11:42;;;;;;;16.20;8.67;;;;;;;;;;10491464;28;20139;-76
2022/03/27 02:16:42;;;;;;;20.77;9.23;;;;;;;;;;10491891;28;20027;-75
2022/03/27 02:21:43;;;;;;;23.67;10.90;;;;;;;;;;10474440;28;20020;-70
2022/03/27 02:26:45;;;;;;;17.63;9.90;;;;;;;;;;10474261;28;20032;-71
2022/03/27 02:31:45;;;;;;;24.73;12.18;;;;;;;;;;10491885;28;20051;-73
2022/03/27 02:36:45;;;;;;;21.57;11.03;;;;;;;;;;10474042;28;20020;-71
2022/03/27 02:41:45;;;;;;;22.43;9.40;;;;;;;;;;10473633;28;20154;-73
2022/03/27 02:46:46;;;;;;;19.87;10.03;;;;;;;;;;10491183;28;20029;-70
2022/03/27 02:51:47;;;;;;;24.77;10.23;;;;;;;;;;10489717;28;20032;-76
2022/03/27 02:56:47;;;;;;;27.35;12.38;;;;;;;;;;10456559;28;20020;-72
2022/03/27 03:01:47;;;;;;;21.00;9.95;;;;;;;;;;10489074;28;20029;-72
2022/03/27 03:06:48;;;;;;;27.33;10.17;;;;;;;;;;10490803;28;20521;-72
2022/03/27 03:11:49;;;;;;;21.75;9.88;;;;;;;;;;10472541;28;20493;-72
2022/03/27 03:16:50;;;;;;;20.90;10.07;;;;;;;;;;10489909;28;20496;-71
2022/03/27 03:21:50;;;;;;;27.17;12.52;;;;;;;;;;10488728;28;20111;-73
2022/03/27 03:26:50;;;;;;;17.43;9.33;;;;;;;;;;10471830;28;20109;-73
2022/03/27 03:31:51;;;;;;;21.52;9.43;;;;;;;;;;10471051;28;20310;-67
2022/03/27 03:36:51;;;;;;;25.80;10.13;;;;;;;;;;10471583;28;20025;-72
2022/03/27 03:41:51;;;;;;;26.33;11.27;;;;;;;;;;10471531;28;20266;-75
2022/03/27 03:46:52;;;;;;;31.05;10.75;;;;;;;;;;10489531;28;20071;-75
2022/03/27 03:51:52;;;;;;;23.88;9.32;;;;;;;;;;10470733;28;20482;-71
2022/03/27 03:56:52;;;;;;;19.87;9.93;;;;;;;;;;10487960;28;20490;-70
2022/03/27 04:01:53;;;;;;;20.63;9.93;;;;;;;;;;10470478;28;20020;-73
2022/03/27 04:06:53;;;;;;;16.67;8.75;;;;;;;;;;10470296;28;20036;-71
2022/03/27 04:11:54;;;;;;;25.10;11.02;;;;;;;;;;10470740;28;20020;-71
2022/03/27 04:16:55;;;;;;;21.93;8.93;;;;;;;;;;10470727;28;20021;-75
2022/03/27 04:21:56;;;;;;;18.30;9.27;;;;;;;;;;10487360;28;20486;-74
2022/03/27 04:26:56;;;;;;;21.25;7.57;;;;;;;;;;10470210;28;20033;-71
2022/03/27 04:31:56;;;;;;;19.43;8.37;;;;;;;;;;10487460;28;20567;-76
2022/03/27 04:36:57;;;;;;;18.33;10.18;;;;;;;;;;10470010;28;20123;-71
2022/03/27 04:41:57;;;;;;;28.75;11.57;;;;;;;;;;10487736;28;20433;-72
2022/03/27 04:46:57;;;;;;;21.77;11.52;;;;;;;;;;10470599;28;20047;-72
2022/03/27 04:51:58;;;;;;;28.25;11.00;;;;;;;;;;10486099;28;20027;-72
2022/03/27 04:56:58;;;;;;;26.92;10.30;;;;;;;;;;10468827;28;20174;-71
2022/03/27 05:01:59;;;;;;;25.50;11.25;;;;;;;;;;10488895;28;20409;-71
2022/03/27 05:06:59;;;;;;;34.45;13.93;;;;;;;;;;10469407;28;20550;-70
2022/03/27 05:11:59;;;;;;;40.97;15.57;;;;;;;;;;10582669;23;20101;-71
2022/03/27 05:17:00;;;;;;;33.90;13.00;;;;;;;;;;10474708;28;20032;-73
2022/03/27 05:22:00;;;;;;;31.83;12.50;;;;;;;;;;10476736;28;20028;-71
2022/03/27 05:27:00;;;;;;;30.70;13.30;;;;;;;;;;10476301;28;20333;-73
2022/03/27 05:32:00;;;;;;;36.75;13.93;;;;;;;;;;10504297;28;20424;-71
2022/03/27 05:37:01;;;;;;;32.63;9.32;;;;;;;;;;10517973;28;20109;-71
2022/03/27 05:42:01;;;;;;;27.63;11.05;;;;;;;;;;10515486;28;20349;-71
2022/03/27 05:47:03;;;;;;;21.07;9.90;;;;;;;;;;10518701;28;20107;-71
2022/03/27 05:52:03;;;;;;;30.13;9.05;;;;;;;;;;10492145;28;20024;-77
2022/03/27 05:57:04;;;;;;;18.58;9.30;;;;;;;;;;10475453;28;20377;-72
2022/03/27 06:02:04;;;;;;;17.80;8.73;;;;;;;;;;10480837;28;20043;-73
2022/03/27 06:07:04;;;;;;;17.55;6.72;;;;;;;;;;10475006;28;20062;-73
2022/03/27 06:12:05;;;;;;;16.50;7.30;;;;;;;;;;10474044;28;20082;-72
2022/03/27 06:17:05;;;;;;;18.45;7.63;;;;;;;;;;10484608;28;20020;-73
2022/03/27 06:22:06;;;;;;;14.82;7.28;;;;;;;;;;10515961;28;20024;-72
2022/03/27 06:27:06;;;;;;;16.83;6.60;;;;;;;;;;10533230;28;20120;-74
2022/03/27 06:32:06;;;;;;;13.05;7.82;;;;;;;;;;10514631;28;20035;-76
2022/03/27 06:37:08;;;;;;;27.52;8.10;;;;;;;;;;10516135;28;20020;-71
2022/03/27 06:42:08;;;;;;;23.50;8.20;;;;;;;;;;10533249;28;20032;-72
2022/03/27 06:47:09;;;;;;;25.35;8.50;;;;;;;;;;10498395;28;20490;-72
2022/03/27 06:52:09;;;;;;;22.10;8.85;;;;;;;;;;10512996;28;20116;-75
2022/03/27 06:57:10;;;;;;;18.47;8.43;;;;;;;;;;10511835;28;20100;-72
2022/03/27 07:07:30;;;;;;;22.63;12.07;;;;;;;;;;10516196;28;20422;-75
2022/03/27 07:12:30;;;;;;;22.70;10.80;;;;;;;;;;10503263;28;20059;-75
2022/03/27 07:17:30;;;;;;;26.03;10.00;;;;;;;;;;10505035;28;20020;-75
2022/03/27 07:22:31;;;;;;;25.90;10.57;;;;;;;;;;10499797;28;20020;-75
2022/03/27 07:27:31;;;;;;;21.40;9.95;;;;;;;;;;10508907;28;20032;-70
2022/03/27 07:32:31;;;;;;;25.25;10.95;;;;;;;;;;10507910;28;20039;-73
2022/03/27 07:37:34;;;;;;;33.78;10.93;;;;;;;;;;10526013;28;20034;-70
2022/03/27 07:42:38;;;;;;;30.23;11.30;;;;;;;;;;10505245;28;20016;-76
2022/03/27 07:47:39;;;;;;;24.33;10.93;;;;;;;;;;10521097;28;20024;-76
2022/03/27 07:52:39;;;;;;;25.77;11.00;;;;;;;;;;10509544;28;20058;-73
2022/03/27 07:57:40;;;;;;;20.87;10.23;;;;;;;;;;10510397;28;20516;-70
2022/03/27 08:02:41;;;;;;;28.80;10.07;;;;;;;;;;10510930;28;20047;-76
2022/03/27 08:07:42;;;;;;;20.83;9.43;;;;;;;;;;10510318;28;20301;-76
2022/03/27 08:12:43;;;;;;;18.65;9.63;;;;;;;;;;10511284;28;20060;-74
2022/03/27 08:17:43;;;;;;;21.27;9.77;;;;;;;;;;10469114;28;20031;-74
2022/03/27 08:22:43;;;;;;;19.17;9.73;;;;;;;;;;10485645;28;20020;-74
2022/03/27 08:27:43;;;;;;;22.67;9.23;;;;;;;;;;10487769;28;20024;-74
2022/03/27 08:32:44;;;;;;;16.75;8.18;;;;;;;;;;10485434;28;20036;-75
2022/03/27 08:37:44;;;;;;;31.10;10.98;;;;;;;;;;10485133;28;20469;-76
2022/03/27 08:42:44;;;;;;;23.25;11.32;;;;;;;;;;10510574;28;20020;-75
2022/03/27 08:47:47;;;;;;;25.88;9.48;;;;;;;;;;10528188;28;20101;-75
2022/03/27 08:53:01;;;;;;;24.33;9.88;;;;;;;;;;10516134;28;20081;-75
2022/03/27 08:58:01;;;;;;;20.58;8.10;;;;;;;;;;10466830;28;20541;-75
2022/03/27 09:03:02;;;;;;;26.77;9.93;;;;;;;;;;10487501;28;20024;-74
2022/03/27 09:08:04;;;;;;;28.45;10.32;;;;;;;;;;10510157;28;20059;-75
2022/03/27 09:13:06;;;;;;;24.42;10.48;;;;;;;;;;10513622;28;20510;-76
2022/03/27 09:18:10;;;;;;;23.58;10.27;;;;;;;;;;10536487;28;20024;-69
2022/03/27 09:23:12;;;;;;;21.38;8.93;;;;;;;;;;10517418;28;20040;-74
2022/03/27 09:28:20;;;;;;;18.98;8.85;;;;;;;;;;10516368;28;20118;-76
2022/03/27 09:33:32;;;;;;;24.08;10.07;;;;;;;;;;10517696;28;20016;-75
2022/03/27 09:38:33;;;;;;;19.17;9.50;;;;;;;;;;10517278;28;20107;-76
2022/03/27 09:43:33;;;;;;;20.20;10.30;;;;;;;;;;10516355;28;20020;-70
2022/03/27 09:48:34;;;;;;;26.27;11.07;;;;;;;;;;10501224;28;20029;-75
2022/03/27 09:53:35;;;;;;;22.83;10.05;;;;;;;;;;10511039;28;20508;-74
2022/03/27 09:58:36;;;;;;;20.92;7.75;;;;;;;;;;10479261;28;20111;-71
2022/03/27 10:03:37;;;;;;;19.55;8.73;;;;;;;;;;10533309;28;20408;-77
2022/03/27 10:08:37;;;;;;;19.92;7.43;;;;;;;;;;10533974;28;20051;-69
2022/03/27 10:13:37;;;;;;;14.48;7.47;;;;;;;;;;10513792;28;20051;-71
2022/03/27 10:18:38;;;;;;;15.37;7.50;;;;;;;;;;10514997;28;20020;-73
2022/03/27 10:23:39;;;;;;;14.50;6.45;;;;;;;;;;10514940;28;20089;-79
2022/03/27 10:28:40;;;;;;;14.27;6.18;;;;;;;;;;10514089;28;20031;-75
2022/03/27 10:33:41;;;;;;;14.60;6.05;;;;;;;;;;10513695;28;20085;-73
2022/03/27 10:39:00;;;;;;;13.75;6.07;;;;;;;;;;10512836;28;20534;-73
2022/03/27 10:44:07;;;;;;;10.43;5.82;;;;;;;;;;10513270;28;20119;-70
2022/03/27 10:49:15;;;;;;;19.25;6.40;;;;;;;;;;10514460;28;20031;-74
2022/03/27 10:54:19;;;;;;;13.45;5.65;;;;;;;;;;10514090;28;20035;-74
2022/03/27 10:59:21;;;;;;;16.50;6.60;;;;;;;;;;10513602;28;20032;-76
2022/03/27 11:04:41;;;;;;;16.40;6.72;;;;;;;;;;10523572;28;20414;-76
2022/03/27 11:09:44;;;;;;;13.55;6.20;;;;;;;;;;10471464;28;20129;-77
2022/03/27 11:15:05;;;;;;;15.32;6.57;;;;;;;;;;10507400;28;20139;-71
2022/03/27 11:20:10;;;;;;;14.50;6.32;;;;;;;;;;10495903;28;20024;-74
2022/03/27 11:25:27;;;;;;;13.57;5.93;;;;;;;;;;10488918;28;20028;-74
2022/03/27 11:30:27;;;;;;;14.25;6.57;;;;;;;;;;10488540;28;20033;-71
2022/03/27 11:35:28;;;;;;;15.02;6.45;;;;;;;;;;10470859;28;20078;-70
2022/03/27 11:40:38;;;;;;;17.35;8.07;;;;;;;;;;10487331;28;20033;-72
2022/03/27 11:45:39;;;;;;;23.63;9.68;;;;;;;;;;10469716;28;20540;-72
2022/03/27 11:50:39;;;;;;;24.73;10.43;;;;;;;;;;10471130;28;20024;-75
2022/03/27 11:55:40;;;;;;;27.73;11.65;;;;;;;;;;10481953;28;20102;-75
2022/03/27 12:00:42;;;;;;;26.05;11.98;;;;;;;;;;10509947;28;20113;-70
2022/03/27 12:05:43;;;;;;;25.45;13.02;;;;;;;;;;10488433;28;20059;-71
2022/03/27 12:10:46;;;;;;;24.73;10.80;;;;;;;;;;10485308;28;20222;-70
2022/03/27 12:15:55;;;;;;;17.80;9.05;;;;;;;;;;10469531;28;20590;-70
2022/03/27 12:20:56;;;;;;;23.45;10.63;;;;;;;;;;10468705;28;20051;-73
2022/03/27 12:26:04;;;;;;;20.75;9.35;;;;;;;;;;10485991;28;20536;-72
2022/03/27 12:31:05;;;;;;;29.38;8.63;;;;;;;;;;10469073;28;20043;-74
2022/03/27 12:36:06;;;;;;;21.73;8.38;;;;;;;;;;10487317;28;20468;-72
2022/03/27 12:41:08;;;;;;;22.63;10.75;;;;;;;;;;10486293;28;20024;-70
2022/03/27 12:46:19;;;;;;;26.00;9.75;;;;;;;;;;10487112;28;20020;-74
2022/03/27 12:51:19;;;;;;;18.83;9.10;;;;;;;;;;10510275;28;20020;-71
2022/03/27 12:56:19;;;;;;;24.73;8.13;;;;;;;;;;10510873;28;20016;-74
2022/03/27 13:01:20;;;;;;;21.85;7.75;;;;;;;;;;10509288;28;20480;-70
2022/03/27 13:06:30;;;;;;;20.02;9.30;;;;;;;;;;10508889;28;20167;-72
2022/03/27 13:11:37;;;;;;;19.65;8.50;;;;;;;;;;10499701;28;20048;-69
2022/03/27 13:16:41;;;;;;;18.27;8.95;;;;;;;;;;10485345;28;20028;-70
2022/03/27 13:21:54;;;;;;;21.70;9.65;;;;;;;;;;10509227;28;20119;-70
2022/03/27 13:27:00;;;;;;;16.70;7.85;;;;;;;;;;10506726;28;20123;-69
2022/03/27 13:32:01;;;;;;;17.77;8.73;;;;;;;;;;10493297;28;20047;-70
2022/03/27 13:37:01;;;;;;;15.38;8.15;;;;;;;;;;10496629;28;20020;-70
2022/03/27 13:47:21;;;;;;;18.40;7.65;;;;;;;;;;10534379;28;20510;-72
2022/03/27 13:52:21;;;;;;;19.35;8.45;;;;;;;;;;10500473;28;20024;-70
2022/03/27 13:57:22;;;;;;;15.93;7.45;;;;;;;;;;10515202;28;20027;-71
2022/03/27 14:02:23;;;;;;;20.00;8.00;;;;;;;;;;10515982;28;20021;-71
2022/03/27 14:07:23;;;;;;;15.20;7.13;;;;;;;;;;10515789;28;20027;-71
2022/03/27 14:12:24;;;;;;;15.45;8.20;;;;;;;;;;10514159;28;20304;-70
2022/03/27 14:17:24;;;;;;;18.08;7.20;;;;;;;;;;10497522;28;20028;-75
2022/03/27 14:22:24;;;;;;;15.87;6.30;;;;;;;;;;10490189;28;20044;-70
2022/03/27 14:27:25;;;;;;;17.02;5.85;;;;;;;;;;10489763;28;20067;-69
2022/03/27 14:32:26;;;;;;;20.00;6.85;;;;;;;;;;10489213;28;20583;-71
2022/03/27 14:37:27;;;;;;;14.07;6.80;;;;;;;;;;10457309;28;20103;-71
2022/03/27 14:42:27;;;;;;;14.13;6.27;;;;;;;;;;10514303;28;20294;-72
2022/03/27 14:47:32;;;;;;;20.27;6.13;;;;;;;;;;10513154;28;20699;-71
2022/03/27 14:52:33;;;;;;;15.57;6.88;;;;;;;;;;10512037;28;20026;-69
2022/03/27 14:57:33;;;;;;;17.43;6.50;;;;;;;;;;10503686;28;20649;-76
2022/03/27 15:02:33;;;;;;;19.05;7.13;;;;;;;;;;10487140;28;20107;-74
2022/03/27 15:07:33;;;;;;;17.95;8.10;;;;;;;;;;10497829;28;20020;-77
2022/03/27 15:12:34;;;;;;;18.08;7.40;;;;;;;;;;10495325;28;20051;-75
2022/03/27 15:17:34;;;;;;;17.33;7.47;;;;;;;;;;10510616;28;20024;-78
2022/03/27 15:22:35;;;;;;;17.60;8.65;;;;;;;;;;10509717;28;20027;-78
2022/03/27 15:27:36;;;;;;;16.85;7.53;;;;;;;;;;10508970;28;20020;-74
2022/03/27 15:32:38;;;;;;;20.17;7.05;;;;;;;;;;10480584;28;20032;-77
2022/03/27 15:37:39;;;;;;;19.85;8.15;;;;;;;;;;10506884;28;20016;-79
2022/03/27 15:42:41;;;;;;;21.60;8.70;;;;;;;;;;10483606;28;20027;-74
2022/03/27 15:47:48;;;;;;;16.45;8.32;;;;;;;;;;10469496;28;20591;-79
2022/03/27 15:52:49;;;;;;;15.38;7.63;;;;;;;;;;10507154;28;20020;-74
2022/03/27 15:57:49;;;;;;;16.77;8.10;;;;;;;;;;10529869;28;20032;-71
2022/03/27 16:02:49;;;;;;;23.08;9.40;;;;;;;;;;10510546;28;20541;-71
2022/03/27 16:07:50;;;;;;;15.80;8.15;;;;;;;;;;10510747;28;20093;-71
2022/03/27 16:12:50;;;;;;;18.57;8.83;;;;;;;;;;10520622;28;20051;-78
2022/03/27 16:17:51;;;;;;;23.00;9.27;;;;;;;;;;10503257;28;20258;-72
2022/03/27 16:22:51;;;;;;;21.17;8.50;;;;;;;;;;10509999;28;20085;-71
2022/03/27 16:27:51;;;;;;;16.10;8.07;;;;;;;;;;10508641;28;20107;-73
2022/03/27 16:32:55;;;;;;;14.48;8.23;;;;;;;;;;10510056;28;20024;-70
2022/03/27 16:37:57;;;;;;;21.08;8.07;;;;;;;;;;10510341;28;20117;-73
2022/03/27 16:42:58;;;;;;;20.80;9.40;;;;;;;;;;10475953;28;20108;-75
2022/03/27 16:47:58;;;;;;;21.15;8.00;;;;;;;;;;10485121;28;20474;-74
2022/03/27 16:52:58;;;;;;;18.63;7.88;;;;;;;;;;10483859;28;20029;-70
2022/03/27 16:57:59;;;;;;;17.55;7.85;;;;;;;;;;10509515;28;20020;-76
2022/03/27 17:02:59;;;;;;;17.88;9.38;;;;;;;;;;10507795;28;20581;-71
2022/03/27 17:07:59;;;;;;;21.30;9.10;;;;;;;;;;10509375;28;20012;-72
2022/03/27 17:12:59;;;;;;;21.55;9.18;;;;;;;;;;10533381;28;20055;-71
2022/03/27 17:18:00;;;;;;;23.00;9.70;;;;;;;;;;10517148;28;20717;-77
2022/03/27 17:23:00;;;;;;;25.35;9.23;;;;;;;;;;10517212;28;20533;-71
2022/03/27 17:28:01;;;;;;;24.67;9.30;;;;;;;;;;10498871;28;20028;-75
2022/03/27 17:33:01;;;;;;;22.13;9.10;;;;;;;;;;10491747;28;20024;-75
2022/03/27 17:38:01;;;;;;;20.38;9.75;;;;;;;;;;10467694;28;20030;-72
2022/03/27 17:43:05;;;;;;;20.93;9.13;;;;;;;;;;10525507;28;20035;-77
2022/03/27 17:48:05;;;;;;;22.83;10.20;;;;;;;;;;10519635;28;20035;-73
2022/03/27 17:53:05;;;;;;;26.07;10.53;;;;;;;;;;10498803;28;20035;-75
2022/03/27 17:58:06;;;;;;;21.03;10.10;;;;;;;;;;10498859;28;20038;-70
2022/03/27 18:03:06;;;;;;;22.60;10.70;;;;;;;;;;10507391;28;20013;-74
2022/03/27 18:08:07;;;;;;;24.08;10.10;;;;;;;;;;10473916;28;20383;-71
2022/03/27 18:13:08;;;;;;;21.27;10.50;;;;;;;;;;10455953;28;20102;-70
2022/03/27 18:18:08;;;;;;;21.92;10.40;;;;;;;;;;10489932;28;20086;-76
2022/03/27 18:23:08;;;;;;;24.98;9.98;;;;;;;;;;10480869;28;20028;-76
2022/03/27 18:28:09;;;;;;;30.25;12.38;;;;;;;;;;10514421;28;20028;-69
2022/03/27 18:33:09;;;;;;;22.60;9.82;;;;;;;;;;10514591;28;20504;-73
2022/03/27 18:38:09;;;;;;;26.92;10.98;;;;;;;;;;10488870;28;20073;-71
2022/03/27 18:43:10;;;;;;;26.37;11.90;;;;;;;;;;10489814;28;20043;-75
2022/03/27 18:48:11;;;;;;;24.85;10.88;;;;;;;;;;10511706;28;20028;-72
2022/03/27 18:53:11;;;;;;;27.02;8.38;;;;;;;;;;10528878;28;20488;-71
2022/03/27 18:58:12;;;;;;;18.45;7.57;;;;;;;;;;10503966;28;20012;-72
2022/03/27 19:03:16;;;;;;;19.92;8.65;;;;;;;;;;10566352;23;20594;-71
2022/03/27 19:08:16;;;;;;;19.23;9.35;;;;;;;;;;10425942;28;20075;-71
2022/03/27 19:13:17;;;;;;;20.80;9.00;;;;;;;;;;10427313;28;20479;-72
2022/03/27 19:18:22;;;;;;;14.43;8.33;;;;;;;;;;10447495;28;20037;-71
2022/03/27 19:23:23;;;;;;;21.38;9.18;;;;;;;;;;10403664;28;20037;-71
2022/03/27 19:28:23;;;;;;;18.20;8.45;;;;;;;;;;10429706;28;20029;-72
2022/03/27 19:33:24;;;;;;;21.00;10.10;;;;;;;;;;10418630;28;20450;-71
2022/03/27 19:38:24;;;;;;;15.57;8.35;;;;;;;;;;10417989;28;20516;-75
2022/03/27 19:43:25;;;;;;;16.33;8.23;;;;;;;;;;10446722;28;20451;-74
2022/03/27 19:48:25;;;;;;;17.00;7.55;;;;;;;;;;10414181;28;20041;-75
2022/03/27 19:53:25;;;;;;;18.77;9.10;;;;;;;;;;10423733;28;20067;-74
2022/03/27 19:58:25;;;;;;;23.88;8.90;;;;;;;;;;10410910;28;20025;-71
2022/03/27 20:03:26;;;;;;;22.40;8.27;;;;;;;;;;10406588;28;20132;-71
2022/03/27 20:08:26;;;;;;;17.73;7.83;;;;;;;;;;10409627;28;20104;-71
2022/03/27 20:13:26;;;;;;;20.02;7.80;;;;;;;;;;10418308;28;20333;-73
2022/03/27 20:18:27;;;;;;;17.60;7.63;;;;;;;;;;10407875;28;20480;-72
2022/03/27 20:23:27;;;;;;;20.02;8.48;;;;;;;;;;10468042;28;20021;-77
2022/03/27 20:28:28;;;;;;;17.05;8.70;;;;;;;;;;10446269;28;20024;-74
2022/03/27 20:33:28;;;;;;;16.83;7.60;;;;;;;;;;10449067;28;20143;-72
2022/03/27 20:38:28;;;;;;;16.47;7.47;;;;;;;;;;10436146;28;20264;-75
2022/03/27 20:43:29;;;;;;;17.50;6.93;;;;;;;;;;10446995;28;20025;-70
2022/03/27 20:48:29;;;;;;;14.03;7.10;;;;;;;;;;10472707;28;20358;-72
2022/03/27 20:53:29;;;;;;;16.73;8.50;;;;;;;;;;10472367;28;20112;-71
2022/03/27 20:58:30;;;;;;;12.88;6.43;;;;;;;;;;10454652;28;20062;-70
2022/03/27 21:03:30;;;;;;;16.53;6.50;;;;;;;;;;10456851;28;20049;-71
2022/03/27 21:08:34;;;;;;;12.50;6.28;;;;;;;;;;10453942;28;20280;-72
2022/03/27 21:13:34;;;;;;;9.77;6.13;;;;;;;;;;10454853;28;20021;-71
2022/03/27 21:18:34;;;;;;;16.55;9.88;;;;;;;;;;10456981;28;20027;-74
2022/03/27 21:23:34;;;;;;;11.07;6.15;;;;;;;;;;10453397;28;20025;-77
2022/03/27 21:28:35;;;;;;;11.30;6.00;;;;;;;;;;10454026;28;20028;-71
2022/03/27 21:33:36;;;;;;;14.03;6.93;;;;;;;;;;10473066;28;20024;-71
2022/03/27 21:38:36;;;;;;;14.00;7.07;;;;;;;;;;10453549;28;20490;-75
2022/03/27 21:43:36;;;;;;;15.35;6.13;;;;;;;;;;10455068;28;20028;-72
2022/03/27 21:48:37;;;;;;;15.55;8.00;;;;;;;;;;10434755;28;20530;-77
2022/03/27 21:53:38;;;;;;;12.48;6.00;;;;;;;;;;10434514;28;20581;-71
2022/03/27 21:58:38;;;;;;;15.25;7.65;;;;;;;;;;10433937;28;20021;-77
2022/03/27 22:03:39;;;;;;;10.63;7.25;;;;;;;;;;10434087;28;20519;-71
2022/03/27 22:08:39;;;;;;;17.67;6.67;;;;;;;;;;10434096;28;20029;-72
2022/03/27 22:13:41;;;;;;;13.93;7.20;;;;;;;;;;10433287;28;20275;-72
2022/03/27 22:18:41;;;;;;;14.77;7.32;;;;;;;;;;10417823;28;20029;-71
2022/03/27 22:23:42;;;;;;;12.63;6.60;;;;;;;;;;10433515;28;20032;-73
2022/03/27 22:28:42;;;;;;;14.35;6.88;;;;;;;;;;10432974;28;20421;-71
2022/03/27 22:33:42;;;;;;;12.27;6.85;;;;;;;;;;10432832;28;20475;-72
2022/03/27 22:38:47;;;;;;;13.32;7.80;;;;;;;;;;10432929;28;20043;-72
2022/03/27 22:43:47;;;;;;;14.05;7.80;;;;;;;;;;10432371;28;20037;-72
2022/03/27 22:48:48;;;;;;;16.73;7.63;;;;;;;;;;10450585;28;20095;-71
2022/03/27 22:53:48;;;;;;;13.30;7.60;;;;;;;;;;10416116;28;20028;-75
2022/03/27 22:58:48;;;;;;;27.17;11.88;;;;;;;;;;10449847;28;20078;-71
2022/03/27 23:03:49;;;;;;;30.33;14.10;;;;;;;;;;10431961;28;20053;-75
2022/03/27 23:08:49;;;;;;;23.92;11.30;;;;;;;;;;10431680;28;20024;-72
2022/03/27 23:13:49;;;;;;;20.40;9.80;;;;;;;;;;10431359;28;20407;-71
2022/03/27 23:18:50;;;;;;;19.13;9.83;;;;;;;;;;10431739;28;20028;-75
2022/03/27 23:23:50;;;;;;;20.13;10.27;;;;;;;;;;10447507;28;20530;-71
2022/03/27 23:28:50;;;;;;;15.07;8.35;;;;;;;;;;10430915;28;20033;-74
2022/03/27 23:33:51;;;;;;;13.17;8.30;;;;;;;;;;10431051;28;20471;-71
2022/03/27 23:38:51;;;;;;;16.77;9.45;;;;;;;;;;10458240;28;20017;-72
2022/03/27 23:43:51;;;;;;;21.75;9.55;;;;;;;;;;10449087;28;20025;-75
2022/03/27 23:48:51;;;;;;;19.20;9.30;;;;;;;;;;10451432;28;20013;-72
2022/03/27 23:53:52;;;;;;;13.85;8.13;;;;;;;;;;10430580;28;20036;-72
2022/03/27 23:58:52;;;;;;;14.95;8.32;;;;;;;;;;10448153;28;20027;-71
